sensor_id;sensor_type;location;lat;lon;timestamp;pressure;altitude;pressure_sealevel;temperature;humidity
70546;BME280;58098;51.680;5.134;2023-01-29T00:01:15;103171.94;;;-0.17;100.00
70546;BME280;58098;51.680;5.134;2023-01-29T00:03:40;103148.81;;;-0.29;100.00
70546;BME280;58098;51.680;5.134;2023-01-29T00:06:07;103157.38;;;-0.23;100.00
70546;BME280;58098;51.680;5.134;2023-01-29T00:08:37;103154.84;;;-0.20;100.00
70546;BME280;58098;51.680;5.134;2023-01-29T00:11:05;103150.50;;;-0.27;100.00
70546;BME280;58098;51.680;5.134;2023-01-29T00:13:30;103148.84;;;-0.25;100.00
70546;BME280;58098;51.680;5.134;2023-01-29T00:15:57;103145.41;;;-0.30;100.00
70546;BME280;58098;51.680;5.134;2023-01-29T00:18:23;103147.13;;;-0.27;100.00
70546;BME280;58098;51.680;5.134;2023-01-29T00:20:49;103141.09;;;-0.35;100.00
70546;BME280;58098;51.680;5.134;2023-01-29T00:23:14;103141.09;;;-0.35;100.00
70546;BME280;58098;51.680;5.134;2023-01-29T00:25:41;103129.97;;;-0.40;100.00
70546;BME280;58098;51.680;5.134;2023-01-29T00:28:06;103125.69;;;-0.41;100.00
70546;BME280;58098;51.680;5.134;2023-01-29T00:30:32;103124.81;;;-0.43;100.00
70546;BME280;58098;51.680;5.134;2023-01-29T00:32:57;103130.81;;;-0.38;100.00
70546;BME280;58098;51.680;5.134;2023-01-29T00:35:23;103112.00;;;-0.49;100.00
70546;BME280;58098;51.680;5.134;2023-01-29T00:37:48;103130.81;;;-0.40;100.00
70546;BME280;58098;51.680;5.134;2023-01-29T00:40:13;103123.13;;;-0.44;100.00
70546;BME280;58098;51.680;5.134;2023-01-29T00:42:39;103112.00;;;-0.43;100.00
70546;BME280;58098;51.680;5.134;2023-01-29T00:45:22;103113.72;;;-0.45;100.00
70546;BME280;58098;51.680;5.134;2023-01-29T00:47:48;103108.56;;;-0.48;100.00
70546;BME280;58098;51.680;5.134;2023-01-29T00:50:13;103097.44;;;-0.58;100.00
70546;BME280;58098;51.680;5.134;2023-01-29T00:52:38;103096.59;;;-0.52;100.00
70546;BME280;58098;51.680;5.134;2023-01-29T00:55:08;103118.84;;;-0.45;100.00
70546;BME280;58098;51.680;5.134;2023-01-29T00:57:34;103105.16;;;-0.50;100.00
70546;BME280;58098;51.680;5.134;2023-01-29T01:00:01;103118.88;;;-0.44;100.00
70546;BME280;58098;51.680;5.134;2023-01-29T01:02:26;103107.72;;;-0.50;100.00
70546;BME280;58098;51.680;5.134;2023-01-29T01:05:13;103114.59;;;-0.37;100.00
70546;BME280;58098;51.680;5.134;2023-01-29T01:07:42;103094.03;;;-0.48;100.00
70546;BME280;58098;51.680;5.134;2023-01-29T01:10:16;103087.22;;;-0.47;100.00
70546;BME280;58098;51.680;5.134;2023-01-29T01:12:45;103098.34;;;-0.38;100.00
70546;BME280;58098;51.680;5.134;2023-01-29T01:15:11;103106.91;;;-0.31;100.00
70546;BME280;58098;51.680;5.134;2023-01-29T01:17:37;103104.38;;;-0.30;100.00
70546;BME280;58098;51.680;5.134;2023-01-29T01:20:03;103106.94;;;-0.25;100.00
70546;BME280;58098;51.680;5.134;2023-01-29T01:22:29;103105.22;;;-0.25;100.00
70546;BME280;58098;51.680;5.134;2023-01-29T01:24:55;103088.97;;;-0.33;100.00
70546;BME280;58098;51.680;5.134;2023-01-29T01:27:20;103088.16;;;-0.20;100.00
70546;BME280;58098;51.680;5.134;2023-01-29T01:29:45;103091.56;;;-0.16;100.00
70546;BME280;58098;51.680;5.134;2023-01-29T01:32:11;103101.81;;;-0.16;100.00
70546;BME280;58098;51.680;5.134;2023-01-29T01:34:37;103086.41;;;-0.25;100.00
70546;BME280;58098;51.680;5.134;2023-01-29T01:37:03;103085.53;;;-0.24;100.00
70546;BME280;58098;51.680;5.134;2023-01-29T01:39:28;103092.41;;;-0.19;100.00
70546;BME280;58098;51.680;5.134;2023-01-29T01:41:54;103098.38;;;-0.12;100.00
70546;BME280;58098;51.680;5.134;2023-01-29T01:47:30;103100.13;;;-0.08;100.00
70546;BME280;58098;51.680;5.134;2023-01-29T01:50:01;103100.13;;;-0.08;100.00
70546;BME280;58098;51.680;5.134;2023-01-29T01:52:31;103106.97;;;-0.04;100.00
70546;BME280;58098;51.680;5.134;2023-01-29T01:54:58;103103.56;;;-0.03;100.00
70546;BME280;58098;51.680;5.134;2023-01-29T01:57:24;103116.34;;;-0.05;100.00
70546;BME280;58098;51.680;5.134;2023-01-29T01:59:56;103077.88;;;-0.21;100.00
70546;BME280;58098;51.680;5.134;2023-01-29T02:02:23;103111.22;;;-0.05;100.00
70546;BME280;58098;51.680;5.134;2023-01-29T02:05:08;103111.25;;;0.02;100.00
70546;BME280;58098;51.680;5.134;2023-01-29T02:07:53;103118.97;;;0.05;100.00
70546;BME280;58098;51.680;5.134;2023-01-29T02:10:44;103115.50;;;-0.02;100.00
70546;BME280;58098;51.680;5.134;2023-01-29T02:13:10;103112.97;;;-0.01;100.00
70546;BME280;58098;51.680;5.134;2023-01-29T02:15:37;103114.69;;;0.02;100.00
70546;BME280;58098;51.680;5.134;2023-01-29T02:18:06;103113.81;;;0.06;100.00
70546;BME280;58098;51.680;5.134;2023-01-29T02:20:33;103112.09;;;0.05;100.00
70546;BME280;58098;51.680;5.134;2023-01-29T02:25:58;103117.22;;;0.17;100.00
70546;BME280;58098;51.680;5.134;2023-01-29T02:31:27;103108.69;;;0.15;100.00
70546;BME280;58098;51.680;5.134;2023-01-29T02:34:05;103113.84;;;0.21;100.00
70546;BME280;58098;51.680;5.134;2023-01-29T02:36:49;103106.13;;;0.23;100.00
70546;BME280;58098;51.680;5.134;2023-01-29T02:39:40;103099.28;;;0.17;100.00
70546;BME280;58098;51.680;5.134;2023-01-29T02:42:24;103104.44;;;0.22;100.00
70546;BME280;58098;51.680;5.134;2023-01-29T02:44:58;103105.28;;;0.25;100.00
70546;BME280;58098;51.680;5.134;2023-01-29T02:47:39;103095.00;;;0.25;100.00
70546;BME280;58098;51.680;5.134;2023-01-29T02:50:14;103105.25;;;0.34;100.00
70546;BME280;58098;51.680;5.134;2023-01-29T02:52:58;103104.41;;;0.35;100.00
70546;BME280;58098;51.680;5.134;2023-01-29T02:58:48;103092.44;;;0.28;100.00
70546;BME280;58098;51.680;5.134;2023-01-29T03:00:57;103091.59;;;0.26;100.00
70546;BME280;58098;51.680;5.134;2023-01-29T03:03:30;103103.53;;;0.39;100.00
70546;BME280;58098;51.680;5.134;2023-01-29T03:06:19;103103.53;;;0.39;100.00
70546;BME280;58098;51.680;5.134;2023-01-29T03:08:52;103089.00;;;0.32;100.00
70546;BME280;58098;51.680;5.134;2023-01-29T03:11:20;103093.28;;;0.38;100.00
70546;BME280;58098;51.680;5.134;2023-01-29T03:13:50;103098.41;;;0.45;100.00
70546;BME280;58098;51.680;5.134;2023-01-29T03:19:00;103095.00;;;0.40;100.00
70546;BME280;58098;51.680;5.134;2023-01-29T03:21:31;103091.59;;;0.38;100.00
70546;BME280;58098;51.680;5.134;2023-01-29T03:24:44;103089.84;;;0.49;100.00
70546;BME280;58098;51.680;5.134;2023-01-29T03:27:32;103089.88;;;0.40;100.00
70546;BME280;58098;51.680;5.134;2023-01-29T03:30:19;103088.16;;;0.45;100.00
70546;BME280;58098;51.680;5.134;2023-01-29T03:33:07;103086.44;;;0.44;100.00
70546;BME280;58098;51.680;5.134;2023-01-29T03:35:37;103103.56;;;0.48;100.00
70546;BME280;58098;51.680;5.134;2023-01-29T03:38:06;103096.69;;;0.52;100.00
70546;BME280;58098;51.680;5.134;2023-01-29T03:43:44;103087.28;;;0.54;100.00
70546;BME280;58098;51.680;5.134;2023-01-29T03:51:29;103077.88;;;0.57;100.00
70546;BME280;58098;51.680;5.134;2023-01-29T03:54:01;103074.41;;;0.58;100.00
70546;BME280;58098;51.680;5.134;2023-01-29T03:59:05;103053.91;;;0.49;100.00
70546;BME280;58098;51.680;5.134;2023-01-29T04:01:56;103061.59;;;0.57;100.00
70546;BME280;58098;51.680;5.134;2023-01-29T04:04:26;103061.56;;;0.58;100.00
70546;BME280;58098;51.680;5.134;2023-01-29T04:06:57;103059.88;;;0.59;100.00
70546;BME280;58098;51.680;5.134;2023-01-29T04:09:31;103027.38;;;0.47;100.00
70546;BME280;58098;51.680;5.134;2023-01-29T04:12:09;103056.44;;;0.61;100.00
70546;BME280;58098;51.680;5.134;2023-01-29T04:14:36;103059.88;;;0.60;100.00
70546;BME280;58098;51.680;5.134;2023-01-29T04:17:08;103057.31;;;0.57;100.00
70546;BME280;58098;51.680;5.134;2023-01-29T04:19:35;103064.16;;;0.61;100.00
70546;BME280;58098;51.680;5.134;2023-01-29T04:22:05;103061.59;;;0.63;100.00
70546;BME280;58098;51.680;5.134;2023-01-29T04:24:31;103065.88;;;0.62;100.00
70546;BME280;58098;51.680;5.134;2023-01-29T04:32:13;103039.31;;;0.63;100.00
70546;BME280;58098;51.680;5.134;2023-01-29T04:40:25;102965.78;;;0.37;100.00
70546;BME280;58098;51.680;5.134;2023-01-29T04:45:39;103008.50;;;0.63;100.00
70546;BME280;58098;51.680;5.134;2023-01-29T04:50:56;103004.22;;;0.70;100.00
70546;BME280;58098;51.680;5.134;2023-01-29T04:53:59;103017.88;;;0.77;100.00
70546;BME280;58098;51.680;5.134;2023-01-29T04:56:36;102999.91;;;0.69;100.00
70546;BME280;58098;51.680;5.134;2023-01-29T04:59:07;103011.91;;;0.75;100.00
70546;BME280;58098;51.680;5.134;2023-01-29T05:01:34;103011.84;;;0.81;100.00
70546;BME280;58098;51.680;5.134;2023-01-29T05:04:04;103011.84;;;0.81;100.00
70546;BME280;58098;51.680;5.134;2023-01-29T05:06:31;103006.72;;;0.81;100.00
70546;BME280;58098;51.680;5.134;2023-01-29T05:08:58;102999.00;;;0.81;100.00
70546;BME280;58098;51.680;5.134;2023-01-29T05:11:24;102994.75;;;0.80;100.00
70546;BME280;58098;51.680;5.134;2023-01-29T05:13:50;102976.78;;;0.77;100.00
70546;BME280;58098;51.680;5.134;2023-01-29T05:16:23;102975.94;;;0.78;100.00
70546;BME280;58098;51.680;5.134;2023-01-29T05:18:49;102968.22;;;0.78;100.00
70546;BME280;58098;51.680;5.134;2023-01-29T05:21:15;102960.50;;;0.78;100.00
70546;BME280;58098;51.680;5.134;2023-01-29T05:23:40;102971.56;;;0.89;100.00
70546;BME280;58098;51.680;5.134;2023-01-29T05:26:19;102954.50;;;0.82;100.00
70546;BME280;58098;51.680;5.134;2023-01-29T05:29:04;102962.16;;;0.89;100.00
70546;BME280;58098;51.680;5.134;2023-01-29T05:31:29;102959.56;;;0.94;100.00
70546;BME280;58098;51.680;5.134;2023-01-29T05:33:54;102968.13;;;0.96;100.00
70546;BME280;58098;51.680;5.134;2023-01-29T05:36:20;102974.97;;;0.97;100.00
70546;BME280;58098;51.680;5.134;2023-01-29T05:38:45;102972.41;;;0.97;100.00
70546;BME280;58098;51.680;5.134;2023-01-29T05:41:10;102975.84;;;0.97;100.00
70546;BME280;58098;51.680;5.134;2023-01-29T05:43:36;102974.13;;;0.96;100.00
70546;BME280;58098;51.680;5.134;2023-01-29T05:46:01;102963.03;;;0.90;100.00
70546;BME280;58098;51.680;5.134;2023-01-29T05:48:27;102991.25;;;0.97;100.00
70546;BME280;58098;51.680;5.134;2023-01-29T05:50:53;102993.81;;;0.99;100.00
70546;BME280;58098;51.680;5.134;2023-01-29T05:53:18;102975.88;;;0.90;100.00
70546;BME280;58098;51.680;5.134;2023-01-29T05:55:45;102979.25;;;0.96;100.00
70546;BME280;58098;51.680;5.134;2023-01-29T05:58:11;102993.75;;;1.05;100.00
70546;BME280;58098;51.680;5.134;2023-01-29T06:00:37;102990.34;;;1.09;100.00
70546;BME280;58098;51.680;5.134;2023-01-29T06:03:02;102979.22;;;1.04;100.00
70546;BME280;58098;51.680;5.134;2023-01-29T06:05:27;102985.19;;;1.06;100.00
70546;BME280;58098;51.680;5.134;2023-01-29T06:07:53;102982.63;;;1.06;100.00
70546;BME280;58098;51.680;5.134;2023-01-29T06:10:18;102991.19;;;1.08;100.00
70546;BME280;58098;51.680;5.134;2023-01-29T06:12:44;102980.97;;;0.97;100.00
70546;BME280;58098;51.680;5.134;2023-01-29T06:15:10;102993.75;;;1.11;100.00
70546;BME280;58098;51.680;5.134;2023-01-29T06:17:36;103015.16;;;1.14;100.00
70546;BME280;58098;51.680;5.134;2023-01-29T06:20:02;102965.56;;;0.91;100.00
70546;BME280;58098;51.680;5.134;2023-01-29T06:22:28;103001.44;;;1.15;100.00
70546;BME280;58098;51.680;5.134;2023-01-29T06:24:53;102992.88;;;1.16;100.00
70546;BME280;58098;51.680;5.134;2023-01-29T06:27:18;102978.28;;;1.17;100.00
70546;BME280;58098;51.680;5.134;2023-01-29T06:29:44;102948.31;;;1.10;100.00
70546;BME280;58098;51.680;5.134;2023-01-29T06:32:09;102935.47;;;1.10;100.00
70546;BME280;58098;51.680;5.134;2023-01-29T06:34:34;102956.84;;;1.19;100.00
70546;BME280;58098;51.680;5.134;2023-01-29T06:37:00;102960.25;;;1.20;100.00
70546;BME280;58098;51.680;5.134;2023-01-29T06:39:25;102957.72;;;1.17;100.00
70546;BME280;58098;51.680;5.134;2023-01-29T06:41:51;102950.84;;;1.20;100.00
70546;BME280;58098;51.680;5.134;2023-01-29T06:44:16;102954.28;;;1.21;100.00
70546;BME280;58098;51.680;5.134;2023-01-29T06:46:41;102956.00;;;1.19;100.00
70546;BME280;58098;51.680;5.134;2023-01-29T06:49:07;102962.81;;;1.23;100.00
70546;BME280;58098;51.680;5.134;2023-01-29T06:51:32;102967.09;;;1.25;100.00
70546;BME280;58098;51.680;5.134;2023-01-29T06:53:57;102968.81;;;1.26;100.00
70546;BME280;58098;51.680;5.134;2023-01-29T06:56:23;102965.38;;;1.27;100.00
70546;BME280;58098;51.680;5.134;2023-01-29T06:58:48;102959.34;;;1.27;100.00
70546;BME280;58098;51.680;5.134;2023-01-29T07:01:14;102949.06;;;1.30;100.00
70546;BME280;58098;51.680;5.134;2023-01-29T07:03:40;102948.19;;;1.32;100.00
70546;BME280;58098;51.680;5.134;2023-01-29T07:06:09;102952.50;;;1.29;100.00
70546;BME280;58098;51.680;5.134;2023-01-29T07:08:36;102952.53;;;1.26;100.00
70546;BME280;58098;51.680;5.134;2023-01-29T07:11:02;102971.31;;;1.34;100.00
70546;BME280;58098;51.680;5.134;2023-01-29T07:13:27;102945.66;;;1.28;100.00
70546;BME280;58098;51.680;5.134;2023-01-29T07:15:53;102964.47;;;1.36;100.00
70546;BME280;58098;51.680;5.134;2023-01-29T07:18:18;102969.56;;;1.39;100.00
70546;BME280;58098;51.680;5.134;2023-01-29T07:20:44;102953.28;;;1.37;100.00
70546;BME280;58098;51.680;5.134;2023-01-29T07:23:11;102954.19;;;1.36;100.00
70546;BME280;58098;51.680;5.134;2023-01-29T07:25:37;102955.03;;;1.32;100.00
70546;BME280;58098;51.680;5.134;2023-01-29T07:28:06;102955.00;;;1.38;100.00
70546;BME280;58098;51.680;5.134;2023-01-29T07:30:31;102955.00;;;1.41;100.00
70546;BME280;58098;51.680;5.134;2023-01-29T07:33:01;102960.97;;;1.45;100.00
70546;BME280;58098;51.680;5.134;2023-01-29T07:35:27;102952.41;;;1.40;100.00
70546;BME280;58098;51.680;5.134;2023-01-29T07:37:52;102954.09;;;1.45;100.00
70546;BME280;58098;51.680;5.134;2023-01-29T07:40:17;102953.22;;;1.46;100.00
70546;BME280;58098;51.680;5.134;2023-01-29T07:42:43;102936.97;;;1.44;100.00
70546;BME280;58098;51.680;5.134;2023-01-29T07:45:09;102944.66;;;1.44;100.00
70546;BME280;58098;51.680;5.134;2023-01-29T07:47:34;102955.78;;;1.49;100.00
70546;BME280;58098;51.680;5.134;2023-01-29T07:50:00;102940.34;;;1.49;100.00
70546;BME280;58098;51.680;5.134;2023-01-29T07:52:25;102943.81;;;1.48;100.00
70546;BME280;58098;51.680;5.134;2023-01-29T07:54:51;102948.03;;;1.54;100.00
70546;BME280;58098;51.680;5.134;2023-01-29T07:57:16;102936.91;;;1.50;100.00
70546;BME280;58098;51.680;5.134;2023-01-29T07:59:41;102938.59;;;1.51;100.00
70546;BME280;58098;51.680;5.134;2023-01-29T08:02:08;102937.72;;;1.57;100.00
70546;BME280;58098;51.680;5.134;2023-01-29T08:04:33;102948.81;;;1.62;100.00
70546;BME280;58098;51.680;5.134;2023-01-29T08:06:59;102929.97;;;1.61;100.00
70546;BME280;58098;51.680;5.134;2023-01-29T08:09:24;102940.19;;;1.70;100.00
70546;BME280;58098;51.680;5.134;2023-01-29T08:11:49;102931.69;;;1.62;100.00
70546;BME280;58098;51.680;5.134;2023-01-29T08:14:15;102937.59;;;1.72;100.00
70546;BME280;58098;51.680;5.134;2023-01-29T08:16:40;102941.84;;;1.77;100.00
70546;BME280;58098;51.680;5.134;2023-01-29T08:19:05;102929.84;;;1.76;100.00
70546;BME280;58098;51.680;5.134;2023-01-29T08:21:31;102918.75;;;1.70;100.00
70546;BME280;58098;51.680;5.134;2023-01-29T08:23:56;102927.22;;;1.81;100.00
70546;BME280;58098;51.680;5.134;2023-01-29T08:26:21;102933.19;;;1.86;100.00
70546;BME280;58098;51.680;5.134;2023-01-29T08:28:46;102924.59;;;1.85;100.00
70546;BME280;58098;51.680;5.134;2023-01-29T08:31:16;102915.13;;;1.87;100.00
70546;BME280;58098;51.680;5.134;2023-01-29T08:33:42;102896.31;;;1.84;100.00
70546;BME280;58098;51.680;5.134;2023-01-29T08:36:08;102909.09;;;1.91;100.00
70546;BME280;58098;51.680;5.134;2023-01-29T08:38:33;102899.66;;;1.90;100.00
70546;BME280;58098;51.680;5.134;2023-01-29T08:40:59;102892.00;;;1.86;100.00
70546;BME280;58098;51.680;5.134;2023-01-29T08:43:24;102900.44;;;2.02;100.00
70546;BME280;58098;51.680;5.134;2023-01-29T08:45:50;102891.94;;;1.93;100.00
70546;BME280;58098;51.680;5.134;2023-01-29T08:48:15;102908.94;;;2.08;100.00
70546;BME280;58098;51.680;5.134;2023-01-29T08:50:40;102895.22;;;2.06;100.00
70546;BME280;58098;51.680;5.134;2023-01-29T08:53:07;102912.34;;;2.12;100.00
70546;BME280;58098;51.680;5.134;2023-01-29T08:55:38;102912.28;;;2.15;100.00
70546;BME280;58098;51.680;5.134;2023-01-29T08:58:09;102916.56;;;2.16;100.00
70546;BME280;58098;51.680;5.134;2023-01-29T09:00:34;102902.03;;;2.12;100.00
70546;BME280;58098;51.680;5.134;2023-01-29T09:03:00;102899.47;;;2.12;100.00
70546;BME280;58098;51.680;5.134;2023-01-29T09:05:26;102897.69;;;2.15;100.00
70546;BME280;58098;51.680;5.134;2023-01-29T09:07:55;102911.31;;;2.25;100.00
70546;BME280;58098;51.680;5.134;2023-01-29T09:10:21;102892.50;;;2.18;100.00
70546;BME280;58098;51.680;5.134;2023-01-29T09:12:46;102903.69;;;2.19;100.00
70546;BME280;58098;51.680;5.134;2023-01-29T09:15:11;102911.25;;;2.29;100.00
70546;BME280;58098;51.680;5.134;2023-01-29T09:17:37;102889.91;;;2.20;100.00
70546;BME280;58098;51.680;5.134;2023-01-29T09:20:02;102895.81;;;2.31;100.00
70546;BME280;58098;51.680;5.134;2023-01-29T09:22:30;102896.63;;;2.33;100.00
70546;BME280;58098;51.680;5.134;2023-01-29T09:24:55;102876.09;;;2.27;100.00
70546;BME280;58098;51.680;5.134;2023-01-29T09:27:20;102900.88;;;2.38;100.00
70546;BME280;58098;51.680;5.134;2023-01-29T09:29:45;102900.84;;;2.40;100.00
70546;BME280;58098;51.680;5.134;2023-01-29T09:32:11;102885.41;;;2.37;100.00
70546;BME280;58098;51.680;5.134;2023-01-29T09:34:36;102872.53;;;2.37;100.00
70546;BME280;58098;51.680;5.134;2023-01-29T09:37:01;102892.13;;;2.50;100.00
70546;BME280;58098;51.680;5.134;2023-01-29T09:39:27;102867.38;;;2.37;100.00
70546;BME280;58098;51.680;5.134;2023-01-29T09:47:15;102893.66;;;2.64;100.00
70546;BME280;58098;51.680;5.134;2023-01-29T09:52:41;102900.47;;;2.70;100.00
70546;BME280;58098;51.680;5.134;2023-01-29T09:55:24;102880.75;;;2.66;100.00
70546;BME280;58098;51.680;5.134;2023-01-29T10:03:34;102885.84;;;2.71;100.00
70546;BME280;58098;51.680;5.134;2023-01-29T10:06:14;102897.72;;;2.81;100.00
70546;BME280;58098;51.680;5.134;2023-01-29T10:14:55;102887.25;;;2.94;100.00
70546;BME280;58098;51.680;5.134;2023-01-29T10:22:42;102872.50;;;3.02;100.00
70546;BME280;58098;51.680;5.134;2023-01-29T10:25:18;102866.47;;;3.03;100.00
70546;BME280;58098;51.680;5.134;2023-01-29T10:27:48;102868.94;;;3.09;100.00
70546;BME280;58098;51.680;5.134;2023-01-29T10:30:28;102880.91;;;3.15;100.00
70546;BME280;58098;51.680;5.134;2023-01-29T10:33:00;102875.66;;;3.21;100.00
70546;BME280;58098;51.680;5.134;2023-01-29T10:35:32;102877.34;;;3.23;100.00
70546;BME280;58098;51.680;5.134;2023-01-29T10:38:11;102887.53;;;3.29;100.00
70546;BME280;58098;51.680;5.134;2023-01-29T10:48:47;102855.66;;;3.35;100.00
70546;BME280;58098;51.680;5.134;2023-01-29T10:51:39;102858.03;;;3.47;100.00
70546;BME280;58098;51.680;5.134;2023-01-29T10:54:20;102850.25;;;3.49;100.00
70546;BME280;58098;51.680;5.134;2023-01-29T10:57:12;102843.91;;;3.66;100.00
70546;BME280;58098;51.680;5.134;2023-01-29T11:00:06;102838.66;;;3.71;100.00
70546;BME280;58098;51.680;5.134;2023-01-29T11:02:35;102829.31;;;3.64;100.00
70546;BME280;58098;51.680;5.134;2023-01-29T11:05:00;102822.03;;;3.85;100.00
70546;BME280;58098;51.680;5.134;2023-01-29T11:07:26;102813.56;;;3.79;100.00
70546;BME280;58098;51.680;5.134;2023-01-29T11:10:10;102807.44;;;3.83;100.00
70546;BME280;58098;51.680;5.134;2023-01-29T11:12:38;102814.09;;;3.94;100.00
70546;BME280;58098;51.680;5.134;2023-01-29T11:15:25;102799.50;;;3.92;100.00
70546;BME280;58098;51.680;5.134;2023-01-29T11:18:13;102784.06;;;3.90;100.00
70546;BME280;58098;51.680;5.134;2023-01-29T11:20:43;102786.66;;;3.90;100.00
70546;BME280;58098;51.680;5.134;2023-01-29T11:23:24;102775.41;;;3.93;100.00
70546;BME280;58098;51.680;5.134;2023-01-29T11:25:52;102766.19;;;3.81;100.00
70546;BME280;58098;51.680;5.134;2023-01-29T11:28:34;102773.69;;;3.93;100.00
70546;BME280;58098;51.680;5.134;2023-01-29T11:31:00;102745.28;;;3.93;100.00
70546;BME280;58098;51.680;5.134;2023-01-29T11:33:27;102749.53;;;3.96;100.00
70546;BME280;58098;51.680;5.134;2023-01-29T11:35:52;102759.72;;;4.02;100.00
70546;BME280;58098;51.680;5.134;2023-01-29T11:38:27;102756.22;;;4.06;100.00
70546;BME280;58098;51.680;5.134;2023-01-29T11:41:05;102741.72;;;3.99;100.00
70546;BME280;58098;51.680;5.134;2023-01-29T11:43:31;102752.66;;;4.10;100.00
70546;BME280;58098;51.680;5.134;2023-01-29T11:46:15;102744.97;;;4.07;100.00
70546;BME280;58098;51.680;5.134;2023-01-29T11:48:44;102754.22;;;4.17;100.00
70546;BME280;58098;51.680;5.134;2023-01-29T11:51:20;102736.56;;;3.97;100.00
70546;BME280;58098;51.680;5.134;2023-01-29T11:53:52;102740.72;;;4.06;100.00
70546;BME280;58098;51.680;5.134;2023-01-29T11:56:23;102738.44;;;3.89;100.00
70546;BME280;58098;51.680;5.134;2023-01-29T11:58:50;102749.38;;;4.02;100.00
70546;BME280;58098;51.680;5.134;2023-01-29T12:01:29;102735.91;;;3.88;100.00
70546;BME280;58098;51.680;5.134;2023-01-29T12:03:56;102731.66;;;3.85;100.00
70546;BME280;58098;51.680;5.134;2023-01-29T12:06:22;102747.69;;;4.01;100.00
70546;BME280;58098;51.680;5.134;2023-01-29T12:08:55;102740.72;;;4.05;100.00
70546;BME280;58098;51.680;5.134;2023-01-29T12:11:28;102718.38;;;4.04;100.00
70546;BME280;58098;51.680;5.134;2023-01-29T12:13:56;102731.19;;;4.08;100.00
70546;BME280;58098;51.680;5.134;2023-01-29T12:16:27;102715.69;;;4.08;100.00
70546;BME280;58098;51.680;5.134;2023-01-29T12:19:01;102720.59;;;4.20;100.00
70546;BME280;58098;51.680;5.134;2023-01-29T12:21:38;102714.59;;;4.18;100.00
70546;BME280;58098;51.680;5.134;2023-01-29T12:24:29;102700.84;;;4.16;100.00
70546;BME280;58098;51.680;5.134;2023-01-29T12:27:16;102697.41;;;4.17;100.00
70546;BME280;58098;51.680;5.134;2023-01-29T12:30:01;102697.22;;;4.25;100.00
70546;BME280;58098;51.680;5.134;2023-01-29T12:35:16;102693.63;;;4.32;100.00
70546;BME280;58098;51.680;5.134;2023-01-29T12:38:13;102686.03;;;4.24;100.00
70546;BME280;58098;51.680;5.134;2023-01-29T12:40:48;102680.13;;;4.19;100.00
70546;BME280;58098;51.680;5.134;2023-01-29T12:43:17;102674.19;;;4.16;100.00
70546;BME280;58098;51.680;5.134;2023-01-29T12:45:46;102670.75;;;4.15;100.00
70546;BME280;58098;51.680;5.134;2023-01-29T12:48:22;102646.94;;;4.03;100.00
70546;BME280;58098;51.680;5.134;2023-01-29T12:50:49;102647.75;;;4.05;100.00
70546;BME280;58098;51.680;5.134;2023-01-29T12:55:45;102622.94;;;3.97;100.00
70546;BME280;58098;51.680;5.134;2023-01-29T12:58:26;102628.63;;;4.13;100.00
70546;BME280;58098;51.680;5.134;2023-01-29T13:00:56;102645.78;;;4.14;100.00
70546;BME280;58098;51.680;5.134;2023-01-29T13:03:31;102634.53;;;4.17;100.00
70546;BME280;58098;51.680;5.134;2023-01-29T13:06:07;102645.50;;;4.26;100.00
70546;BME280;58098;51.680;5.134;2023-01-29T13:08:39;102630.09;;;4.23;100.00
70546;BME280;58098;51.680;5.134;2023-01-29T13:11:14;102630.16;;;4.20;100.00
70546;BME280;58098;51.680;5.134;2023-01-29T13:13:53;102607.78;;;4.19;100.00
70546;BME280;58098;51.680;5.134;2023-01-29T13:16:29;102606.94;;;4.19;100.00
70546;BME280;58098;51.680;5.134;2023-01-29T13:19:30;102612.72;;;4.30;100.00
70546;BME280;58098;51.680;5.134;2023-01-29T13:22:00;102606.94;;;4.19;100.00
70546;BME280;58098;51.680;5.134;2023-01-29T13:24:33;102596.53;;;4.22;100.00
70546;BME280;58098;51.680;5.134;2023-01-29T13:27:00;102590.63;;;4.18;100.00
70546;BME280;58098;51.680;5.134;2023-01-29T13:29:28;102594.88;;;4.19;100.00
70546;BME280;58098;51.680;5.134;2023-01-29T13:31:55;102595.69;;;4.21;100.00
70546;BME280;58098;51.680;5.134;2023-01-29T13:34:29;102580.28;;;4.18;100.00
70546;BME280;58098;51.680;5.134;2023-01-29T13:37:07;102567.31;;;4.20;100.00
70546;BME280;58098;51.680;5.134;2023-01-29T13:39:35;102561.09;;;4.28;100.00
70546;BME280;58098;51.680;5.134;2023-01-29T13:42:18;102553.03;;;4.39;100.00
70546;BME280;58098;51.680;5.134;2023-01-29T13:44:52;102502.84;;;4.15;100.00
70546;BME280;58098;51.680;5.134;2023-01-29T13:47:27;102555.69;;;4.37;100.00
70546;BME280;58098;51.680;5.134;2023-01-29T13:50:05;102552.03;;;4.44;100.00
70546;BME280;58098;51.680;5.134;2023-01-29T13:52:40;102544.41;;;4.40;100.00
70546;BME280;58098;51.680;5.134;2023-01-29T14:05:40;102541.09;;;4.35;100.00
70546;BME280;58098;51.680;5.134;2023-01-29T14:10:37;102533.28;;;4.38;100.00
70546;BME280;58098;51.680;5.134;2023-01-29T14:15:37;102524.66;;;4.37;100.00
70546;BME280;58098;51.680;5.134;2023-01-29T14:18:14;102526.34;;;4.38;100.00
70546;BME280;58098;51.680;5.134;2023-01-29T14:20:53;102532.81;;;4.54;100.00
70546;BME280;58098;51.680;5.134;2023-01-29T14:23:41;102526.69;;;4.58;100.00
70546;BME280;58098;51.680;5.134;2023-01-29T14:26:23;102512.22;;;4.51;100.00
70546;BME280;58098;51.680;5.134;2023-01-29T14:29:28;102523.34;;;4.55;100.00
70546;BME280;58098;51.680;5.134;2023-01-29T14:34:50;102509.00;;;4.43;100.00
70546;BME280;58098;51.680;5.134;2023-01-29T14:39:54;102516.00;;;4.40;100.00
70546;BME280;58098;51.680;5.134;2023-01-29T14:44:55;102521.34;;;4.32;100.00
70546;BME280;58098;51.680;5.134;2023-01-29T14:50:01;102507.25;;;4.44;100.00
70546;BME280;58098;51.680;5.134;2023-01-29T14:52:38;102500.69;;;4.32;100.00